Time;durP1;ratioP1;P1;durP2;ratioP2;P2;SDS_P1;SDS_P2;PMS_P1;PMS_P2;Temp;Humidity;BMP_temperature;BMP_pressure;BME280_temperature;BME280_humidity;BME280_pressure;Samples;Min_cycle;Max_cycle;Signal;HPM_P1;HPM_P2
2022/11/07 00:02:44;;;;;;;0.10;0.10;;;;;;;8.49;100.00;100502.25;10419682;28;20025;-79
2022/11/07 00:07:44;;;;;;;0.00;0.00;;;;;;;8.53;100.00;100503.63;10423912;28;20021;-79
2022/11/07 00:12:45;;;;;;;0.10;0.10;;;;;;;8.60;100.00;100503.81;10420800;28;20018;-79
2022/11/07 00:17:45;;;;;;;0.10;0.10;;;;;;;8.64;100.00;100512.31;10423100;28;20013;-79
2022/11/07 00:22:45;;;;;;;0.05;0.05;;;;;;;8.69;100.00;100499.41;10420093;28;20267;-79
2022/11/07 00:27:46;;;;;;;0.00;0.00;;;;;;;8.74;100.00;100515.72;10419384;28;20063;-79
2022/11/07 00:32:46;;;;;;;0.03;0.03;;;;;;;8.80;100.00;100512.44;10419352;28;20481;-79
2022/11/07 00:37:46;;;;;;;0.03;0.03;;;;;;;8.84;100.00;100508.47;10422475;28;20534;-79
2022/11/07 00:42:46;;;;;;;0.10;0.10;;;;;;;8.87;100.00;100524.09;10435956;22;20467;-80
2022/11/07 00:47:47;;;;;;;0.10;0.10;;;;;;;8.89;100.00;100530.09;10482764;28;20043;-79
2022/11/07 00:52:47;;;;;;;0.10;0.10;;;;;;;8.95;100.00;100540.09;10467523;28;20044;-78
2022/11/07 00:57:47;;;;;;;0.00;0.00;;;;;;;8.96;100.00;100547.09;10467591;28;20290;-79
2022/11/07 01:05:09;;;;;;;0.00;0.00;;;;;;;9.01;100.00;100547.44;10468027;28;20048;-79
2022/11/07 01:08:08;;;;;;;0.10;0.10;;;;;;;9.01;100.00;100520.88;10467916;28;20047;-80
2022/11/07 01:13:08;;;;;;;0.10;0.10;;;;;;;9.05;100.00;100532.88;10466807;28;20160;-79
2022/11/07 01:18:09;;;;;;;0.10;0.10;;;;;;;9.07;100.00;100533.56;10467705;28;20021;-80
2022/11/07 01:23:09;;;;;;;0.10;0.10;;;;;;;9.07;100.00;100536.22;10467551;28;20107;-79
2022/11/07 01:28:10;;;;;;;0.10;0.10;;;;;;;9.06;100.00;100542.50;10467474;28;20025;-79
2022/11/07 01:33:11;;;;;;;0.00;0.00;;;;;;;9.06;100.00;100539.00;10467275;28;20021;-77
2022/11/07 01:38:11;;;;;;;0.10;0.10;;;;;;;9.07;100.00;100538.88;10465686;28;20021;-79
2022/11/07 01:43:11;;;;;;;0.10;0.10;;;;;;;9.10;100.00;100544.84;10467320;28;20071;-78
2022/11/07 01:48:12;;;;;;;0.00;0.00;;;;;;;9.10;100.00;100543.00;10467203;28;20021;-80
2022/11/07 01:53:13;;;;;;;0.10;0.10;;;;;;;9.12;100.00;100537.56;10474628;28;20045;-79
2022/11/07 01:58:13;;;;;;;0.10;0.10;;;;;;;9.12;100.00;100541.03;10478943;28;20028;-79
2022/11/07 02:03:17;;;;;;;0.00;0.00;;;;;;;9.17;100.00;100544.06;10480274;28;20120;-79
2022/11/07 02:08:18;;;;;;;0.10;0.10;;;;;;;9.17;100.00;100541.41;10480709;28;20495;-78
2022/11/07 02:13:24;;;;;;;0.10;0.10;;;;;;;9.13;100.00;100541.88;10480753;28;20484;-79
2022/11/07 02:18:26;;;;;;;0.00;0.00;;;;;;;9.15;100.00;100531.94;10479952;28;20049;-79
2022/11/07 02:23:56;;;;;;;0.00;0.00;;;;;;;9.17;100.00;100517.50;10492046;28;20025;-79
2022/11/07 02:28:57;;;;;;;0.00;0.00;;;;;;;9.24;100.00;100550.41;10491764;28;20044;-79
2022/11/07 02:33:58;;;;;;;0.00;0.00;;;;;;;9.28;100.00;100542.97;10521691;28;20025;-79
2022/11/07 02:38:59;;;;;;;0.10;0.10;;;;;;;9.35;100.00;100543.19;10520985;28;20051;-79
2022/11/07 02:44:05;;;;;;;0.00;0.00;;;;;;;9.37;100.00;100552.66;10520538;28;20042;-77
2022/11/07 02:49:05;;;;;;;0.10;0.10;;;;;;;9.39;100.00;100550.66;10520217;28;20081;-77
2022/11/07 02:54:06;;;;;;;0.00;0.00;;;;;;;9.43;100.00;100543.22;10516237;28;20542;-78
2022/11/07 02:59:06;;;;;;;0.10;0.10;;;;;;;9.46;100.00;100557.03;10517636;28;20277;-78
2022/11/07 03:04:06;;;;;;;0.10;0.10;;;;;;;9.49;100.00;100551.38;10513973;28;20020;-78
2022/11/07 03:09:06;;;;;;;0.10;0.10;;;;;;;9.52;100.00;100545.75;10510314;28;20025;-77
2022/11/07 03:14:07;;;;;;;0.00;0.00;;;;;;;9.53;100.00;100551.91;10511047;28;20029;-78
2022/11/07 03:19:07;;;;;;;0.00;0.00;;;;;;;9.50;100.00;100553.03;10511810;28;20031;-80
2022/11/07 03:24:07;;;;;;;0.10;0.10;;;;;;;9.43;100.00;100549.38;10512788;28;20078;-79
2022/11/07 03:29:11;;;;;;;0.10;0.10;;;;;;;9.46;100.00;100550.88;10512721;28;20060;-79
2022/11/07 03:34:11;;;;;;;0.00;0.00;;;;;;;9.50;100.00;100552.22;10509452;28;20468;-79
2022/11/07 03:39:11;;;;;;;0.10;0.10;;;;;;;9.55;100.00;100549.09;10510599;28;20354;-79
2022/11/07 03:44:12;;;;;;;0.07;0.07;;;;;;;9.59;100.00;100551.25;10510370;28;20579;-79
2022/11/07 03:49:12;;;;;;;0.10;0.10;;;;;;;9.53;100.00;100546.59;10510080;28;20028;-79
2022/11/07 03:54:12;;;;;;;0.10;0.10;;;;;;;9.45;100.00;100555.38;10510368;28;20295;-79
2022/11/07 03:59:12;;;;;;;0.10;0.10;;;;;;;9.46;100.00;100559.69;10510290;28;20021;-80
2022/11/07 04:04:13;;;;;;;0.00;0.00;;;;;;;9.48;100.00;100549.72;10510462;28;20060;-79
2022/11/07 04:09:13;;;;;;;0.10;0.10;;;;;;;9.52;100.00;100558.22;10510038;28;20028;-79
2022/11/07 04:19:32;;;;;;;0.00;0.00;;;;;;;9.62;100.00;100560.75;10509365;28;20028;-79
2022/11/07 04:24:32;;;;;;;0.10;0.10;;;;;;;9.69;100.00;100573.25;10510317;28;20021;-79
2022/11/07 04:29:32;;;;;;;0.00;0.00;;;;;;;9.77;100.00;100566.28;10509482;28;20021;-79
2022/11/07 04:34:33;;;;;;;0.10;0.10;;;;;;;9.82;100.00;100575.47;10509485;28;20395;-79
2022/11/07 04:39:33;;;;;;;0.10;0.10;;;;;;;9.87;100.00;100559.03;10509557;28;20392;-78
2022/11/07 04:44:33;;;;;;;0.10;0.10;;;;;;;9.92;100.00;100592.13;10508526;28;20091;-79
2022/11/07 04:49:34;;;;;;;0.10;0.10;;;;;;;9.97;100.00;100586.31;10509773;28;20028;-78
2022/11/07 04:54:34;;;;;;;0.10;0.10;;;;;;;9.94;100.00;100583.97;10507733;28;20020;-77
2022/11/07 04:59:34;;;;;;;0.10;0.10;;;;;;;9.85;100.00;100588.44;10508492;28;20464;-78
2022/11/07 05:04:35;;;;;;;0.08;0.08;;;;;;;9.87;100.00;100586.47;10508986;28;20028;-77
2022/11/07 05:09:35;;;;;;;0.10;0.10;;;;;;;9.89;100.00;100588.94;10509281;28;20035;-78
2022/11/07 05:14:35;;;;;;;0.10;0.10;;;;;;;9.90;100.00;100583.47;10507199;28;20016;-79
2022/11/07 05:19:35;;;;;;;0.10;0.10;;;;;;;9.94;100.00;100595.44;10507197;28;20551;-78
2022/11/07 05:24:36;;;;;;;0.10;0.10;;;;;;;9.90;100.00;100596.78;10508762;28;20285;-78
2022/11/07 05:29:37;;;;;;;0.00;0.00;;;;;;;9.80;100.00;100588.06;10507058;28;20105;-78
2022/11/07 05:34:37;;;;;;;0.10;0.10;;;;;;;9.67;100.00;100598.34;10507250;28;20016;-78
2022/11/07 05:39:38;;;;;;;0.10;0.10;;;;;;;9.60;100.00;100597.28;10509155;28;20288;-78
2022/11/07 05:44:38;;;;;;;0.10;0.10;;;;;;;9.62;100.00;100605.94;10507690;28;20123;-78
2022/11/07 05:49:38;;;;;;;0.00;0.00;;;;;;;9.60;100.00;100600.81;10508723;28;20055;-78
2022/11/07 05:54:38;;;;;;;0.10;0.10;;;;;;;9.54;100.00;100601.44;10508342;28;20089;-78
2022/11/07 05:59:39;;;;;;;0.10;0.10;;;;;;;9.50;100.00;100611.53;10508136;28;20074;-78
2022/11/07 06:04:39;;;;;;;0.03;0.03;;;;;;;9.50;100.00;100608.88;10509459;28;20378;-78
2022/11/07 06:09:39;;;;;;;0.10;0.10;;;;;;;9.55;100.00;100605.75;10507921;28;20033;-78
2022/11/07 06:14:40;;;;;;;0.10;0.10;;;;;;;9.65;100.00;100624.25;10506654;28;20107;-78
2022/11/07 06:19:40;;;;;;;0.10;0.10;;;;;;;9.66;100.00;100616.13;10505825;28;20081;-78
2022/11/07 06:24:40;;;;;;;0.10;0.10;;;;;;;9.56;100.00;100618.06;10506854;28;20383;-78
2022/11/07 06:29:41;;;;;;;0.00;0.00;;;;;;;9.47;100.00;100625.16;10506655;28;20493;-79
2022/11/07 06:34:41;;;;;;;0.10;0.10;;;;;;;9.43;100.00;100630.94;10504275;28;20432;-77
2022/11/07 06:39:41;;;;;;;0.10;0.10;;;;;;;9.43;100.00;100638.94;10512639;28;20388;-78
2022/11/07 06:44:42;;;;;;;0.10;0.10;;;;;;;9.37;100.00;100648.34;10516435;28;20113;-79
2022/11/07 06:49:42;;;;;;;0.03;0.03;;;;;;;9.35;100.00;100644.19;10521980;22;20398;-77
2022/11/07 06:54:43;;;;;;;0.10;0.10;;;;;;;9.41;100.00;100647.03;10493653;28;20028;-77
2022/11/07 06:59:43;;;;;;;0.08;0.08;;;;;;;9.50;100.00;100659.41;10493963;28;20024;-77
2022/11/07 07:04:46;;;;;;;0.10;0.10;;;;;;;9.62;100.00;100659.13;10494236;28;20494;-77
2022/11/07 07:09:46;;;;;;;0.00;0.00;;;;;;;9.73;100.00;100656.22;10499686;28;20070;-77
2022/11/07 07:14:48;;;;;;;0.10;0.10;;;;;;;9.90;100.00;100654.47;10498671;28;20270;-77
2022/11/07 07:19:48;;;;;;;0.10;0.10;;;;;;;9.98;100.00;100670.50;10499162;28;20125;-77
2022/11/07 07:24:50;;;;;;;0.10;0.10;;;;;;;10.01;100.00;100672.84;10499147;28;20031;-78
2022/11/07 07:29:52;;;;;;;0.10;0.10;;;;;;;10.08;100.00;100676.50;10492423;28;20039;-77
2022/11/07 07:34:53;;;;;;;0.10;0.10;;;;;;;10.34;100.00;100689.78;10490462;28;20066;-77
2022/11/07 07:39:53;;;;;;;0.10;0.10;;;;;;;10.56;100.00;100684.84;10498652;28;20044;-77
2022/11/07 07:44:53;;;;;;;0.10;0.10;;;;;;;10.62;100.00;100695.72;10499229;28;20017;-77
2022/11/07 07:49:54;;;;;;;0.10;0.10;;;;;;;10.68;100.00;100701.41;10497990;28;20111;-77
2022/11/07 07:54:54;;;;;;;0.10;0.10;;;;;;;10.75;100.00;100697.91;10497338;28;20045;-77
2022/11/07 07:59:55;;;;;;;0.00;0.00;;;;;;;10.86;100.00;100697.59;10490171;28;20021;-77
2022/11/07 08:04:55;;;;;;;0.10;0.10;;;;;;;11.01;100.00;100704.94;10494447;28;20016;-78
2022/11/07 08:09:55;;;;;;;0.10;0.10;;;;;;;11.25;100.00;100704.94;10498887;28;20029;-78
2022/11/07 08:14:56;;;;;;;0.10;0.10;;;;;;;11.36;100.00;100693.13;10497138;28;20496;-78
2022/11/07 08:19:56;;;;;;;0.10;0.10;;;;;;;11.42;100.00;100712.94;10498496;28;20263;-78
2022/11/07 08:24:56;;;;;;;0.10;0.10;;;;;;;11.53;100.00;100712.63;10498537;28;20020;-77
2022/11/07 08:29:57;;;;;;;0.10;0.10;;;;;;;11.72;100.00;100717.59;10495228;28;20136;-77
2022/11/07 08:34:57;;;;;;;0.10;0.10;;;;;;;11.84;100.00;100722.56;10498443;28;20017;-77
2022/11/07 08:39:57;;;;;;;0.10;0.10;;;;;;;12.18;100.00;100728.50;10498040;28;20573;-77
2022/11/07 08:44:58;;;;;;;0.10;0.10;;;;;;;12.13;100.00;100736.22;10496819;28;20637;-77
2022/11/07 08:49:58;;;;;;;0.10;0.10;;;;;;;11.98;100.00;100728.09;10496219;28;20036;-77
2022/11/07 08:54:58;;;;;;;0.00;0.00;;;;;;;11.83;100.00;100712.91;10496724;28;20082;-78
2022/11/07 08:59:59;;;;;;;0.00;0.00;;;;;;;12.00;100.00;100736.75;10490512;28;20031;-78
2022/11/07 09:04:59;;;;;;;0.10;0.10;;;;;;;12.04;100.00;100728.38;10494641;28;20012;-78
2022/11/07 09:09:59;;;;;;;0.10;0.10;;;;;;;12.04;100.00;100731.88;10494303;28;20038;-78
2022/11/07 09:15:00;;;;;;;0.00;0.00;;;;;;;12.05;100.00;100722.06;10494596;28;20009;-78
2022/11/07 09:20:00;;;;;;;0.10;0.10;;;;;;;12.03;100.00;100724.91;10495086;28;20056;-78
2022/11/07 09:25:00;;;;;;;0.10;0.10;;;;;;;12.17;100.00;100740.22;10446068;28;20022;-78
2022/11/07 09:30:02;;;;;;;0.00;0.00;;;;;;;12.42;100.00;100726.75;10478207;28;20275;-77
2022/11/07 09:35:03;;;;;;;0.10;0.10;;;;;;;12.46;100.00;100731.59;10489637;28;20488;-78
2022/11/07 09:40:04;;;;;;;0.10;0.10;;;;;;;12.51;100.00;100755.13;10488346;28;20068;-78
2022/11/07 09:45:10;;;;;;;0.10;0.10;;;;;;;12.63;100.00;100759.06;10487125;28;20044;-77
2022/11/07 09:50:16;;;;;;;0.10;0.10;;;;;;;12.69;100.00;100757.53;10458276;28;1045315;-77
2022/11/07 09:55:24;;;;;;;0.00;0.00;;;;;;;12.57;100.00;100764.28;10485435;28;20017;-77
2022/11/07 10:00:28;;;;;;;0.10;0.10;;;;;;;12.43;100.00;100758.66;10494307;28;20047;-77
2022/11/07 10:05:31;;;;;;;;;;;;;;;12.46;100.00;100768.16;10489248;28;20670;-77
2022/11/07 10:10:45;;;;;;;0.10;0.10;;;;;;;12.46;100.00;100778.84;10492382;28;19969;-77
2022/11/07 10:16:13;;;;;;;0.10;0.10;;;;;;;12.42;100.00;100772.16;10500638;28;20090;-77
2022/11/07 10:21:25;;;;;;;0.10;0.10;;;;;;;12.31;100.00;100781.41;10500392;28;20021;-77
2022/11/07 10:26:27;;;;;;;0.10;0.10;;;;;;;12.57;100.00;100766.97;10491580;28;20509;-77
2022/11/07 10:31:38;;;;;;;0.03;0.03;;;;;;;12.74;100.00;100786.41;10496659;28;20082;-78
2022/11/07 10:36:38;;;;;;;0.10;0.10;;;;;;;12.68;100.00;100785.25;10502278;28;20021;-77
2022/11/07 10:41:42;;;;;;;0.10;0.10;;;;;;;12.57;100.00;100793.69;10501050;28;20047;-78
2022/11/07 10:46:45;;;;;;;0.10;0.10;;;;;;;12.48;100.00;100787.53;10498958;28;20020;-78
2022/11/07 10:51:46;;;;;;;0.10;0.10;;;;;;;12.44;100.00;100778.19;10497882;28;20700;-78
2022/11/07 10:56:49;;;;;;;0.10;0.10;;;;;;;12.44;100.00;100791.53;10496030;28;20095;-77
2022/11/07 11:01:53;;;;;;;0.10;0.10;;;;;;;12.45;100.00;100791.38;10491715;28;20027;-78
2022/11/07 11:07:12;;;;;;;0.00;0.00;;;;;;;12.55;100.00;100785.81;10495916;28;20459;-78
2022/11/07 11:12:13;;;;;;;0.08;0.08;;;;;;;12.58;100.00;100788.13;10497272;28;20029;-78
2022/11/07 11:17:27;;;;;;;0.10;0.10;;;;;;;12.55;100.00;100788.50;10490153;28;20671;-77
2022/11/07 11:22:28;;;;;;;0.10;0.10;;;;;;;12.48;100.00;100790.19;10492799;28;20416;-77
2022/11/07 11:27:32;;;;;;;0.10;0.10;;;;;;;12.50;100.00;100793.50;10492814;28;20056;-77
2022/11/07 11:32:44;;;;;;;0.10;0.10;;;;;;;12.56;100.00;100797.34;10484375;28;20024;-77
2022/11/07 11:37:56;;;;;;;0.10;0.10;;;;;;;12.58;100.00;100792.66;10497830;28;20344;-77
2022/11/07 11:43:17;;;;;;;0.10;0.10;;;;;;;12.59;100.00;100800.47;10492738;28;20052;-77
2022/11/07 11:48:25;;;;;;;0.10;0.10;;;;;;;12.55;100.00;100793.84;10488248;28;20111;-77
2022/11/07 11:53:27;;;;;;;0.10;0.10;;;;;;;12.46;100.00;100795.69;10492838;28;20029;-76
2022/11/07 11:59:15;;;;;;;0.10;0.10;;;;;;;12.42;100.00;100802.41;10491150;28;20273;-78
2022/11/07 12:04:57;;;;;;;0.10;0.10;;;;;;;12.41;100.00;100807.91;10480215;28;20044;-78
2022/11/07 12:10:16;;;;;;;0.10;0.10;;;;;;;12.44;100.00;100810.22;10494018;28;20036;-77
2022/11/07 12:15:35;;;;;;;0.10;0.10;;;;;;;12.46;100.00;100810.91;10495551;28;20040;-76
2022/11/07 12:20:50;;;;;;;0.10;0.10;;;;;;;12.48;100.00;100813.38;10498470;28;20016;-78
2022/11/07 12:26:13;;;;;;;0.03;0.03;;;;;;;12.51;100.00;100811.22;10502428;28;20017;-78
2022/11/07 12:31:19;;;;;;;0.10;0.10;;;;;;;12.52;100.00;100818.22;10491876;28;20029;-78
2022/11/07 12:36:38;;;;;;;0.08;0.08;;;;;;;12.56;100.00;100819.53;10489835;28;20027;-77
2022/11/07 12:41:45;;;;;;;0.10;0.10;;;;;;;12.65;100.00;100813.19;10494732;28;20020;-77
2022/11/07 12:47:00;;;;;;;0.10;0.10;;;;;;;12.88;100.00;100801.69;10496724;28;20025;-77
2022/11/07 12:52:09;;;;;;;0.00;0.00;;;;;;;13.12;100.00;100808.78;10478742;28;20034;-78
2022/11/07 12:57:18;;;;;;;0.10;0.10;;;;;;;13.24;100.00;100806.53;10492383;28;20046;-77
2022/11/07 13:02:56;;;;;;;0.00;0.00;;;;;;;13.29;100.00;100820.22;10476292;28;20020;-77
2022/11/07 13:08:14;;;;;;;0.10;0.10;;;;;;;13.32;100.00;100809.16;10474916;28;20077;-77
2022/11/07 13:13:30;;;;;;;0.10;0.10;;;;;;;13.18;100.00;100812.56;10489256;28;20020;-78
2022/11/07 13:18:30;;;;;;;0.10;0.10;;;;;;;13.02;100.00;100821.53;10492794;28;20080;-78
2022/11/07 13:23:31;;;;;;;0.10;0.10;;;;;;;12.87;100.00;100810.75;10494123;28;20059;-78
2022/11/07 13:28:42;;;;;;;0.10;0.10;;;;;;;12.89;100.00;100819.44;10495764;28;20032;-77
2022/11/07 13:33:42;;;;;;;0.00;0.00;;;;;;;12.91;100.00;100836.97;10494858;28;20028;-77
2022/11/07 13:38:49;;;;;;;0.10;0.10;;;;;;;12.83;100.00;100837.00;10489343;28;20018;-77
2022/11/07 13:43:58;;;;;;;0.00;0.00;;;;;;;12.71;100.00;100837.53;10501194;28;20020;-77
2022/11/07 13:49:28;;;;;;;0.10;0.10;;;;;;;12.68;100.00;100844.03;10487209;28;20044;-78
2022/11/07 13:54:59;;;;;;;0.10;0.10;;;;;;;12.63;100.00;100847.25;10492391;28;20027;-77
2022/11/07 14:00:05;;;;;;;0.10;0.10;;;;;;;12.59;100.00;100848.59;10478647;28;20017;-77
2022/11/07 14:05:09;;;;;;;0.10;0.10;;;;;;;12.53;100.00;100846.59;10498278;28;20052;-77
2022/11/07 14:10:31;;;;;;;0.10;0.10;;;;;;;12.49;100.00;100841.78;10484205;28;20032;-77
2022/11/07 14:15:32;;;;;;;0.10;0.10;;;;;;;12.44;100.00;100850.31;10486668;28;20297;-77
2022/11/07 14:20:32;;;;;;;0.10;0.10;;;;;;;12.44;100.00;100837.78;10485721;28;20032;-77
2022/11/07 14:25:34;;;;;;;0.00;0.00;;;;;;;12.42;100.00;100838.94;10492510;28;20027;-77
2022/11/07 14:30:40;;;;;;;0.10;0.10;;;;;;;12.36;100.00;100853.84;10473004;28;20059;-77
2022/11/07 14:35:44;;;;;;;0.10;0.10;;;;;;;12.30;100.00;100840.31;10487596;28;20009;-77
2022/11/07 14:40:45;;;;;;;0.10;0.10;;;;;;;12.24;100.00;100850.66;10483307;28;20375;-77
2022/11/07 14:45:47;;;;;;;0.10;0.10;;;;;;;12.18;100.00;100839.84;10494855;28;20027;-78
2022/11/07 14:50:47;;;;;;;0.10;0.10;;;;;;;12.14;100.00;100850.03;10496570;28;20032;-77
2022/11/07 14:55:54;;;;;;;0.00;0.00;;;;;;;12.08;100.00;100840.03;10498357;28;20028;-78
2022/11/07 15:01:11;;;;;;;0.10;0.10;;;;;;;12.04;100.00;100846.69;10499706;28;20032;-77
2022/11/07 15:06:39;;;;;;;0.10;0.10;;;;;;;11.99;100.00;100844.53;10503128;28;20403;-77
2022/11/07 15:11:52;;;;;;;0.10;0.10;;;;;;;11.97;100.00;100848.38;10496778;28;20055;-77
2022/11/07 15:16:52;;;;;;;0.10;0.10;;;;;;;11.92;100.00;100858.72;10503287;28;20020;-77
2022/11/07 15:21:56;;;;;;;0.00;0.00;;;;;;;11.90;100.00;100850.88;10496905;28;20054;-77
2022/11/07 15:27:20;;;;;;;0.10;0.10;;;;;;;11.87;100.00;100858.38;10498885;28;20017;-76
2022/11/07 15:32:24;;;;;;;0.10;0.10;;;;;;;11.82;100.00;100861.53;10492378;28;20032;-78
2022/11/07 15:37:25;;;;;;;0.10;0.10;;;;;;;11.79;100.00;100864.53;10489167;28;20017;-77
2022/11/07 15:42:26;;;;;;;0.10;0.10;;;;;;;11.78;100.00;100868.22;10496681;28;20025;-77
2022/11/07 15:47:26;;;;;;;0.10;0.10;;;;;;;11.76;100.00;100872.88;10496661;28;20108;-77
2022/11/07 15:52:26;;;;;;;0.10;0.10;;;;;;;11.72;100.00;100887.53;10497241;28;20036;-77
2022/11/07 15:57:32;;;;;;;0.10;0.10;;;;;;;11.69;100.00;100872.69;10490823;28;20039;-77
2022/11/07 16:02:33;;;;;;;0.10;0.10;;;;;;;11.70;100.00;100882.38;10493408;28;20266;-77
2022/11/07 16:07:33;;;;;;;0.10;0.10;;;;;;;11.70;100.00;100876.19;10488706;28;20013;-76
2022/11/07 16:12:34;;;;;;;0.10;0.10;;;;;;;11.70;100.00;100876.19;10487095;28;20111;-76
2022/11/07 16:17:34;;;;;;;0.10;0.10;;;;;;;11.75;100.00;100882.72;10475841;28;20059;-77
2022/11/07 16:22:34;;;;;;;0.00;0.00;;;;;;;11.82;100.00;100888.22;10487749;28;20254;-77
2022/11/07 16:27:35;;;;;;;0.10;0.10;;;;;;;11.92;100.00;100885.41;10487619;28;20052;-77
2022/11/07 16:32:35;;;;;;;0.10;0.10;;;;;;;11.97;100.00;100891.91;10492824;28;20464;-77
2022/11/07 16:37:35;;;;;;;0.10;0.10;;;;;;;11.98;100.00;100898.94;10489229;28;20630;-77
2022/11/07 16:42:36;;;;;;;0.10;0.10;;;;;;;12.01;100.00;100903.09;10489193;28;20028;-77
2022/11/07 16:47:38;;;;;;;0.10;0.10;;;;;;;12.02;100.00;100904.78;10476342;28;20021;-77
2022/11/07 16:52:38;;;;;;;0.10;0.10;;;;;;;12.03;100.00;100910.94;10489665;28;20031;-77
2022/11/07 16:57:38;;;;;;;0.00;0.00;;;;;;;12.05;100.00;100919.63;10485876;28;20095;-77
2022/11/07 17:02:51;;;;;;;0.10;0.10;;;;;;;12.03;100.00;100916.28;10488953;28;20029;-77
2022/11/07 17:07:54;;;;;;;0.10;0.10;;;;;;;12.07;100.00;100914.94;10485486;28;20021;-77
2022/11/07 17:12:54;;;;;;;0.10;0.10;;;;;;;12.07;100.00;100917.59;10488382;28;20048;-77
2022/11/07 17:17:55;;;;;;;0.10;0.10;;;;;;;12.06;100.00;100922.13;10478505;28;20508;-77
2022/11/07 17:22:55;;;;;;;0.10;0.10;;;;;;;12.06;100.00;100919.44;10481613;28;20028;-77
2022/11/07 17:27:55;;;;;;;0.10;0.10;;;;;;;12.06;100.00;100924.78;10480700;28;20044;-76
2022/11/07 17:32:55;;;;;;;0.10;0.10;;;;;;;12.02;100.00;100911.94;10485346;28;20025;-76
2022/11/07 17:37:56;;;;;;;0.10;0.10;;;;;;;11.97;100.00;100904.44;10487482;28;20031;-77
2022/11/07 17:42:58;;;;;;;0.10;0.10;;;;;;;11.97;100.00;100918.59;10484361;28;20040;-77
2022/11/07 17:47:58;;;;;;;0.10;0.10;;;;;;;11.94;100.00;100908.25;10485376;28;20373;-77
2022/11/07 17:52:59;;;;;;;0.10;0.10;;;;;;;11.93;100.00;100911.13;10476899;28;20036;-77
2022/11/07 17:57:59;;;;;;;0.10;0.10;;;;;;;11.82;100.00;100914.06;10482950;28;20023;-77
2022/11/07 18:02:59;;;;;;;0.00;0.00;;;;;;;11.74;100.00;100923.72;10486424;28;20470;-77
2022/11/07 18:08:01;;;;;;;0.10;0.10;;;;;;;11.65;100.00;100924.72;10485103;28;20024;-76
2022/11/07 18:13:01;;;;;;;0.10;0.10;;;;;;;11.61;100.00;100927.88;10476919;28;20112;-77
2022/11/07 18:18:02;;;;;;;0.00;0.00;;;;;;;11.54;100.00;100922.34;10483380;28;20493;-77
2022/11/07 18:23:02;;;;;;;0.00;0.00;;;;;;;11.53;100.00;100929.50;10479899;28;20024;-77
2022/11/07 18:28:03;;;;;;;0.10;0.10;;;;;;;11.56;100.00;100926.53;10483779;28;20286;-77
2022/11/07 18:33:03;;;;;;;0.00;0.00;;;;;;;11.65;100.00;100918.53;10485795;28;20023;-77
2022/11/07 18:38:03;;;;;;;0.10;0.10;;;;;;;11.71;100.00;100918.72;10495159;28;20019;-77
2022/11/07 18:43:04;;;;;;;0.10;0.10;;;;;;;11.75;100.00;100922.75;10494659;28;20274;-77
2022/11/07 18:48:04;;;;;;;0.10;0.10;;;;;;;11.78;100.00;100929.59;10505969;28;20036;-77
2022/11/07 18:53:05;;;;;;;0.08;0.08;;;;;;;11.80;100.00;100930.22;10478036;22;20072;-76
2022/11/07 18:58:05;;;;;;;0.10;0.10;;;;;;;11.81;100.00;100934.59;10450118;28;20094;-75
2022/11/07 19:03:06;;;;;;;0.08;0.08;;;;;;;11.82;100.00;100936.25;10456308;28;20039;-75
2022/11/07 19:08:06;;;;;;;0.10;0.10;;;;;;;11.84;100.00;100933.41;10450288;28;20029;-75
2022/11/07 19:13:06;;;;;;;0.10;0.10;;;;;;;11.87;100.00;100933.09;10441119;28;20079;-76
2022/11/07 19:18:06;;;;;;;0.10;0.10;;;;;;;11.88;100.00;100945.47;10454963;28;20028;-76
2022/11/07 19:23:07;;;;;;;0.10;0.10;;;;;;;11.87;100.00;100941.09;10454609;28;20527;-76
2022/11/07 19:28:08;;;;;;;0.10;0.10;;;;;;;11.82;100.00;100946.91;10452102;28;20112;-75
2022/11/07 19:33:10;;;;;;;0.00;0.00;;;;;;;11.78;100.00;100949.09;10454483;28;20364;-76
2022/11/07 19:38:12;;;;;;;0.10;0.10;;;;;;;11.74;100.00;100936.22;10453774;28;20377;-76
2022/11/07 19:43:12;;;;;;;0.10;0.10;;;;;;;11.73;100.00;100939.91;10445221;28;20036;-77
2022/11/07 19:48:14;;;;;;;0.10;0.10;;;;;;;11.69;100.00;100942.06;10451915;28;20023;-77
2022/11/07 19:53:14;;;;;;;0.10;0.10;;;;;;;11.66;100.00;100945.03;10452827;28;20033;-78
2022/11/07 19:58:14;;;;;;;0.10;0.10;;;;;;;11.63;100.00;100941.88;10453217;28;20017;-78
2022/11/07 20:03:15;;;;;;;0.10;0.10;;;;;;;11.56;100.00;100936.34;10453405;28;20013;-78
2022/11/07 20:08:15;;;;;;;0.10;0.10;;;;;;;11.52;100.00;100945.69;10450411;28;20067;-78
2022/11/07 20:13:15;;;;;;;0.10;0.10;;;;;;;11.47;100.00;100956.84;10444968;28;20021;-78
2022/11/07 20:18:16;;;;;;;0.10;0.10;;;;;;;11.43;100.00;100951.97;10449449;28;20016;-79
2022/11/07 20:23:16;;;;;;;0.00;0.00;;;;;;;11.39;100.00;100950.66;10453316;28;20023;-79
2022/11/07 20:28:16;;;;;;;0.05;0.05;;;;;;;11.40;100.00;100957.63;10451243;28;20024;-78
2022/11/07 20:33:16;;;;;;;0.10;0.10;;;;;;;11.41;100.00;100957.50;10451805;28;20031;-79
2022/11/07 20:38:17;;;;;;;0.10;0.10;;;;;;;11.40;100.00;100962.97;10450037;28;20360;-79
2022/11/07 20:43:17;;;;;;;0.10;0.10;;;;;;;11.43;100.00;100962.66;10443145;28;20493;-79
2022/11/07 20:48:18;;;;;;;0.10;0.10;;;;;;;11.43;100.00;100955.50;10450385;28;20067;-78
2022/11/07 20:53:19;;;;;;;0.10;0.10;;;;;;;11.45;100.00;100952.66;10450723;28;20323;-79
2022/11/07 20:58:19;;;;;;;0.10;0.10;;;;;;;11.45;100.00;100955.31;10447639;28;20449;-79
2022/11/07 21:03:19;;;;;;;0.10;0.10;;;;;;;11.44;100.00;100959.00;10451023;28;20067;-79
2022/11/07 21:08:19;;;;;;;0.10;0.10;;;;;;;11.42;100.00;100961.00;10448821;28;20017;-77
2022/11/07 21:13:20;;;;;;;0.10;0.10;;;;;;;11.41;100.00;100962.00;10442377;28;20025;-78
2022/11/07 21:18:20;;;;;;;0.10;0.10;;;;;;;11.41;100.00;100946.81;10449555;28;20024;-78
2022/11/07 21:23:21;;;;;;;0.00;0.00;;;;;;;11.43;100.00;100957.31;10449643;28;20162;-78
2022/11/07 21:28:21;;;;;;;0.10;0.10;;;;;;;11.42;100.00;100956.47;10449367;28;20028;-78
2022/11/07 21:33:22;;;;;;;0.00;0.00;;;;;;;11.40;100.00;100947.78;10449813;28;20033;-79
2022/11/07 21:38:23;;;;;;;0.10;0.10;;;;;;;11.43;100.00;100944.84;10448596;28;20047;-78
2022/11/07 21:43:23;;;;;;;0.10;0.10;;;;;;;11.45;100.00;100955.31;10440937;28;20738;-78
2022/11/07 21:48:23;;;;;;;0.10;0.10;;;;;;;11.45;100.00;100947.31;10448721;28;20009;-77
2022/11/07 21:53:24;;;;;;;0.00;0.00;;;;;;;11.44;100.00;100949.16;10449141;28;20024;-78
2022/11/07 21:58:25;;;;;;;0.10;0.10;;;;;;;11.48;100.00;100965.66;10448608;28;20021;-77
2022/11/07 22:03:25;;;;;;;0.03;0.03;;;;;;;11.48;100.00;100960.34;10449205;28;20066;-77
2022/11/07 22:08:27;;;;;;;0.10;0.10;;;;;;;11.50;100.00;100963.69;10448064;28;20026;-77
2022/11/07 22:13:27;;;;;;;0.10;0.10;;;;;;;11.51;100.00;100947.50;10448285;28;20067;-78
2022/11/07 22:18:27;;;;;;;0.10;0.10;;;;;;;11.49;100.00;100962.00;10457021;28;20048;-77
2022/11/07 22:23:32;;;;;;;0.10;0.10;;;;;;;11.48;100.00;100952.34;10456681;28;20028;-78
2022/11/07 22:28:33;;;;;;;0.10;0.10;;;;;;;11.44;100.00;100941.16;10456196;28;20047;-78
2022/11/07 22:33:35;;;;;;;0.10;0.10;;;;;;;11.43;100.00;100934.16;10457577;28;20163;-79
2022/11/07 22:38:36;;;;;;;0.00;0.00;;;;;;;11.42;100.00;100940.47;10455344;28;20016;-79
2022/11/07 22:43:37;;;;;;;0.10;0.10;;;;;;;11.44;100.00;100940.34;10449285;28;20024;-79
2022/11/07 22:48:37;;;;;;;0.10;0.10;;;;;;;11.45;100.00;100937.50;10457860;28;20033;-79
2022/11/07 22:53:38;;;;;;;0.10;0.10;;;;;;;11.50;100.00;100929.84;10458679;28;20502;-79
2022/11/07 22:58:39;;;;;;;0.10;0.10;;;;;;;11.55;100.00;100938.19;10458624;28;20387;-79
2022/11/07 23:03:39;;;;;;;0.10;0.10;;;;;;;11.62;100.00;100938.38;10459754;28;20039;-78
2022/11/07 23:08:40;;;;;;;0.10;0.10;;;;;;;11.66;100.00;100942.38;10457097;28;20013;-78